sensor_id;sensor_type;location;lat;lon;timestamp;P1;durP1;ratioP1;P2;durP2;ratioP2
32946;SDS011;54465;51.230;22.504;2023-03-04T00:01:40;27.30;;;13.73;;
32946;SDS011;54465;51.230;22.504;2023-03-04T00:06:40;27.92;;;13.32;;
32946;SDS011;54465;51.230;22.504;2023-03-04T00:11:41;24.67;;;14.02;;
32946;SDS011;54465;51.230;22.504;2023-03-04T00:16:41;26.98;;;14.15;;
32946;SDS011;54465;51.230;22.504;2023-03-04T00:21:42;28.90;;;13.15;;
32946;SDS011;54465;51.230;22.504;2023-03-04T00:26:42;26.17;;;12.05;;
32946;SDS011;54465;51.230;22.504;2023-03-04T00:31:43;25.05;;;13.18;;
32946;SDS011;54465;51.230;22.504;2023-03-04T00:36:43;22.95;;;13.15;;
32946;SDS011;54465;51.230;22.504;2023-03-04T00:41:44;29.65;;;15.00;;
32946;SDS011;54465;51.230;22.504;2023-03-04T00:46:44;30.15;;;15.43;;
32946;SDS011;54465;51.230;22.504;2023-03-04T00:51:45;26.58;;;13.73;;
32946;SDS011;54465;51.230;22.504;2023-03-04T00:56:45;26.88;;;14.98;;
32946;SDS011;54465;51.230;22.504;2023-03-04T01:01:46;27.20;;;15.02;;
32946;SDS011;54465;51.230;22.504;2023-03-04T01:06:47;25.05;;;14.32;;
32946;SDS011;54465;51.230;22.504;2023-03-04T01:11:47;29.40;;;15.80;;
32946;SDS011;54465;51.230;22.504;2023-03-04T01:16:48;26.67;;;14.88;;
32946;SDS011;54465;51.230;22.504;2023-03-04T01:21:48;28.05;;;14.45;;
32946;SDS011;54465;51.230;22.504;2023-03-04T01:26:49;27.10;;;14.23;;
32946;SDS011;54465;51.230;22.504;2023-03-04T01:31:49;26.75;;;15.00;;
32946;SDS011;54465;51.230;22.504;2023-03-04T01:36:50;27.98;;;14.68;;
32946;SDS011;54465;51.230;22.504;2023-03-04T01:41:52;26.67;;;14.95;;
32946;SDS011;54465;51.230;22.504;2023-03-04T01:46:52;26.05;;;12.80;;
32946;SDS011;54465;51.230;22.504;2023-03-04T01:51:54;27.10;;;13.77;;
32946;SDS011;54465;51.230;22.504;2023-03-04T01:56:54;28.13;;;14.57;;
32946;SDS011;54465;51.230;22.504;2023-03-04T02:01:57;28.52;;;13.52;;
32946;SDS011;54465;51.230;22.504;2023-03-04T02:06:59;24.75;;;13.40;;
32946;SDS011;54465;51.230;22.504;2023-03-04T02:12:00;25.60;;;13.50;;
32946;SDS011;54465;51.230;22.504;2023-03-04T02:17:01;25.13;;;14.85;;
32946;SDS011;54465;51.230;22.504;2023-03-04T02:22:02;25.83;;;13.95;;
32946;SDS011;54465;51.230;22.504;2023-03-04T02:27:02;22.90;;;13.23;;
32946;SDS011;54465;51.230;22.504;2023-03-04T02:32:04;26.33;;;12.52;;
32946;SDS011;54465;51.230;22.504;2023-03-04T02:37:08;26.63;;;14.02;;
32946;SDS011;54465;51.230;22.504;2023-03-04T02:42:09;26.25;;;12.90;;
32946;SDS011;54465;51.230;22.504;2023-03-04T02:47:11;24.70;;;12.43;;
32946;SDS011;54465;51.230;22.504;2023-03-04T02:52:15;24.40;;;11.98;;
32946;SDS011;54465;51.230;22.504;2023-03-04T02:57:17;21.77;;;12.73;;
32946;SDS011;54465;51.230;22.504;2023-03-04T03:02:22;22.60;;;13.32;;
32946;SDS011;54465;51.230;22.504;2023-03-04T03:07:23;21.25;;;12.25;;
32946;SDS011;54465;51.230;22.504;2023-03-04T03:12:24;19.88;;;10.82;;
32946;SDS011;54465;51.230;22.504;2023-03-04T03:17:24;22.02;;;12.63;;
32946;SDS011;54465;51.230;22.504;2023-03-04T03:22:25;22.88;;;11.88;;
32946;SDS011;54465;51.230;22.504;2023-03-04T03:27:27;19.30;;;11.27;;
32946;SDS011;54465;51.230;22.504;2023-03-04T03:32:28;20.73;;;11.38;;
32946;SDS011;54465;51.230;22.504;2023-03-04T03:37:29;20.15;;;10.98;;
32946;SDS011;54465;51.230;22.504;2023-03-04T03:42:29;20.60;;;11.88;;
32946;SDS011;54465;51.230;22.504;2023-03-04T03:47:30;20.88;;;11.25;;
32946;SDS011;54465;51.230;22.504;2023-03-04T03:52:30;19.65;;;10.43;;
32946;SDS011;54465;51.230;22.504;2023-03-04T03:57:31;21.63;;;11.25;;
32946;SDS011;54465;51.230;22.504;2023-03-04T04:02:31;20.08;;;11.32;;
32946;SDS011;54465;51.230;22.504;2023-03-04T04:07:32;22.52;;;11.90;;
32946;SDS011;54465;51.230;22.504;2023-03-04T04:12:32;20.83;;;10.82;;
32946;SDS011;54465;51.230;22.504;2023-03-04T04:17:33;22.42;;;11.70;;
32946;SDS011;54465;51.230;22.504;2023-03-04T04:22:33;23.13;;;12.95;;
32946;SDS011;54465;51.230;22.504;2023-03-04T04:27:34;22.85;;;12.88;;
32946;SDS011;54465;51.230;22.504;2023-03-04T04:32:34;25.08;;;13.38;;
32946;SDS011;54465;51.230;22.504;2023-03-04T04:37:35;24.27;;;11.52;;
32946;SDS011;54465;51.230;22.504;2023-03-04T04:42:35;28.83;;;15.27;;
32946;SDS011;54465;51.230;22.504;2023-03-04T04:47:36;27.30;;;14.10;;
32946;SDS011;54465;51.230;22.504;2023-03-04T04:52:36;31.90;;;15.90;;
32946;SDS011;54465;51.230;22.504;2023-03-04T04:57:37;25.60;;;11.73;;
32946;SDS011;54465;51.230;22.504;2023-03-04T05:02:38;31.13;;;14.75;;
32946;SDS011;54465;51.230;22.504;2023-03-04T05:07:38;26.38;;;13.07;;
32946;SDS011;54465;51.230;22.504;2023-03-04T05:12:39;28.02;;;11.98;;
32946;SDS011;54465;51.230;22.504;2023-03-04T05:17:39;25.40;;;13.73;;
32946;SDS011;54465;51.230;22.504;2023-03-04T05:22:40;26.45;;;12.60;;
32946;SDS011;54465;51.230;22.504;2023-03-04T05:27:40;25.45;;;12.25;;
32946;SDS011;54465;51.230;22.504;2023-03-04T05:32:40;21.77;;;11.27;;
32946;SDS011;54465;51.230;22.504;2023-03-04T05:37:41;22.83;;;11.57;;
32946;SDS011;54465;51.230;22.504;2023-03-04T05:42:41;24.90;;;11.93;;
32946;SDS011;54465;51.230;22.504;2023-03-04T05:47:42;26.48;;;12.70;;
32946;SDS011;54465;51.230;22.504;2023-03-04T05:52:42;25.73;;;12.50;;
32946;SDS011;54465;51.230;22.504;2023-03-04T05:57:43;26.33;;;11.55;;
32946;SDS011;54465;51.230;22.504;2023-03-04T06:02:44;20.95;;;11.20;;
32946;SDS011;54465;51.230;22.504;2023-03-04T06:07:45;19.58;;;10.02;;
32946;SDS011;54465;51.230;22.504;2023-03-04T06:12:45;20.65;;;9.98;;
32946;SDS011;54465;51.230;22.504;2023-03-04T06:17:46;25.58;;;11.95;;
32946;SDS011;54465;51.230;22.504;2023-03-04T06:22:46;20.33;;;10.73;;
32946;SDS011;54465;51.230;22.504;2023-03-04T06:27:47;20.05;;;11.07;;
32946;SDS011;54465;51.230;22.504;2023-03-04T06:32:47;21.88;;;11.23;;
32946;SDS011;54465;51.230;22.504;2023-03-04T06:37:48;20.42;;;10.63;;
32946;SDS011;54465;51.230;22.504;2023-03-04T06:42:48;23.88;;;12.30;;
32946;SDS011;54465;51.230;22.504;2023-03-04T06:47:49;24.45;;;11.68;;
32946;SDS011;54465;51.230;22.504;2023-03-04T06:52:49;23.88;;;11.40;;
32946;SDS011;54465;51.230;22.504;2023-03-04T06:57:50;23.40;;;12.15;;
32946;SDS011;54465;51.230;22.504;2023-03-04T07:02:50;22.05;;;11.40;;
32946;SDS011;54465;51.230;22.504;2023-03-04T07:07:51;23.77;;;12.02;;
32946;SDS011;54465;51.230;22.504;2023-03-04T07:12:51;23.55;;;12.68;;
32946;SDS011;54465;51.230;22.504;2023-03-04T07:17:52;21.35;;;10.80;;
32946;SDS011;54465;51.230;22.504;2023-03-04T07:22:52;25.08;;;12.40;;
32946;SDS011;54465;51.230;22.504;2023-03-04T07:27:53;21.80;;;12.52;;
32946;SDS011;54465;51.230;22.504;2023-03-04T07:32:56;20.75;;;12.18;;
32946;SDS011;54465;51.230;22.504;2023-03-04T07:37:57;23.63;;;12.02;;
32946;SDS011;54465;51.230;22.504;2023-03-04T07:42:57;23.13;;;11.93;;
32946;SDS011;54465;51.230;22.504;2023-03-04T07:48:00;22.40;;;12.48;;
32946;SDS011;54465;51.230;22.504;2023-03-04T07:53:00;22.27;;;11.45;;
32946;SDS011;54465;51.230;22.504;2023-03-04T07:58:00;23.83;;;14.05;;
32946;SDS011;54465;51.230;22.504;2023-03-04T08:03:02;22.17;;;12.10;;
32946;SDS011;54465;51.230;22.504;2023-03-04T08:08:02;23.33;;;13.57;;
32946;SDS011;54465;51.230;22.504;2023-03-04T08:13:03;24.40;;;13.35;;
32946;SDS011;54465;51.230;22.504;2023-03-04T08:18:04;22.58;;;12.90;;
32946;SDS011;54465;51.230;22.504;2023-03-04T08:23:04;21.80;;;12.05;;
32946;SDS011;54465;51.230;22.504;2023-03-04T08:28:05;20.05;;;11.10;;
32946;SDS011;54465;51.230;22.504;2023-03-04T08:33:07;21.75;;;11.98;;
32946;SDS011;54465;51.230;22.504;2023-03-04T08:38:07;18.65;;;10.82;;
32946;SDS011;54465;51.230;22.504;2023-03-04T08:43:08;17.52;;;11.25;;
32946;SDS011;54465;51.230;22.504;2023-03-04T08:48:09;22.85;;;12.02;;
32946;SDS011;54465;51.230;22.504;2023-03-04T08:53:11;19.23;;;11.30;;
32946;SDS011;54465;51.230;22.504;2023-03-04T08:58:12;19.25;;;10.43;;
32946;SDS011;54465;51.230;22.504;2023-03-04T09:03:13;20.52;;;10.82;;
32946;SDS011;54465;51.230;22.504;2023-03-04T09:08:14;22.05;;;10.82;;
32946;SDS011;54465;51.230;22.504;2023-03-04T09:13:14;19.42;;;11.57;;
32946;SDS011;54465;51.230;22.504;2023-03-04T09:18:15;18.67;;;10.48;;
32946;SDS011;54465;51.230;22.504;2023-03-04T09:23:17;21.27;;;12.98;;
32946;SDS011;54465;51.230;22.504;2023-03-04T09:28:18;19.13;;;10.25;;
32946;SDS011;54465;51.230;22.504;2023-03-04T09:33:19;19.17;;;10.70;;
32946;SDS011;54465;51.230;22.504;2023-03-04T09:38:19;21.90;;;11.00;;
32946;SDS011;54465;51.230;22.504;2023-03-04T09:43:21;18.55;;;10.95;;
32946;SDS011;54465;51.230;22.504;2023-03-04T09:48:25;21.70;;;13.25;;
32946;SDS011;54465;51.230;22.504;2023-03-04T09:53:33;20.17;;;10.77;;
32946;SDS011;54465;51.230;22.504;2023-03-04T09:59:04;19.93;;;9.93;;
32946;SDS011;54465;51.230;22.504;2023-03-04T10:04:23;19.10;;;11.50;;
32946;SDS011;54465;51.230;22.504;2023-03-04T10:09:30;20.77;;;12.50;;
32946;SDS011;54465;51.230;22.504;2023-03-04T10:14:53;21.30;;;13.27;;
32946;SDS011;54465;51.230;22.504;2023-03-04T10:25:01;19.80;;;11.25;;
32946;SDS011;54465;51.230;22.504;2023-03-04T10:35:35;21.58;;;11.82;;
32946;SDS011;54465;51.230;22.504;2023-03-04T10:40:37;26.25;;;13.45;;
32946;SDS011;54465;51.230;22.504;2023-03-04T10:45:39;18.30;;;10.13;;
32946;SDS011;54465;51.230;22.504;2023-03-04T10:50:40;18.88;;;12.90;;
32946;SDS011;54465;51.230;22.504;2023-03-04T10:55:41;21.45;;;11.38;;
32946;SDS011;54465;51.230;22.504;2023-03-04T11:00:42;21.38;;;12.77;;
32946;SDS011;54465;51.230;22.504;2023-03-04T11:05:43;22.98;;;12.90;;
32946;SDS011;54465;51.230;22.504;2023-03-04T11:10:44;20.92;;;11.27;;
32946;SDS011;54465;51.230;22.504;2023-03-04T11:20:58;20.65;;;12.23;;
32946;SDS011;54465;51.230;22.504;2023-03-04T11:26:04;26.00;;;14.00;;
32946;SDS011;54465;51.230;22.504;2023-03-04T11:31:13;23.88;;;12.68;;
32946;SDS011;54465;51.230;22.504;2023-03-04T11:46:38;26.17;;;12.88;;
32946;SDS011;54465;51.230;22.504;2023-03-04T11:56:58;23.88;;;12.23;;
32946;SDS011;54465;51.230;22.504;2023-03-04T12:22:51;32.47;;;15.25;;
32946;SDS011;54465;51.230;22.504;2023-03-04T12:28:25;28.13;;;14.32;;
32946;SDS011;54465;51.230;22.504;2023-03-04T12:44:15;25.45;;;12.73;;
32946;SDS011;54465;51.230;22.504;2023-03-04T12:54:45;27.15;;;13.65;;
32946;SDS011;54465;51.230;22.504;2023-03-04T12:59:59;23.88;;;11.88;;
32946;SDS011;54465;51.230;22.504;2023-03-04T13:10:29;20.50;;;11.77;;
32946;SDS011;54465;51.230;22.504;2023-03-04T13:15:32;21.83;;;11.27;;
32946;SDS011;54465;51.230;22.504;2023-03-04T13:20:38;19.75;;;10.10;;
32946;SDS011;54465;51.230;22.504;2023-03-04T14:06:41;28.77;;;14.38;;
32946;SDS011;54465;51.230;22.504;2023-03-04T14:11:47;24.98;;;12.43;;
32946;SDS011;54465;51.230;22.504;2023-03-04T14:16:52;29.77;;;14.32;;
32946;SDS011;54465;51.230;22.504;2023-03-04T14:21:55;24.50;;;11.25;;
32946;SDS011;54465;51.230;22.504;2023-03-04T14:27:05;22.08;;;11.90;;
32946;SDS011;54465;51.230;22.504;2023-03-04T14:32:10;23.92;;;12.80;;
32946;SDS011;54465;51.230;22.504;2023-03-04T14:42:42;21.15;;;12.23;;
32946;SDS011;54465;51.230;22.504;2023-03-04T14:47:44;25.63;;;14.18;;
32946;SDS011;54465;51.230;22.504;2023-03-04T14:52:47;29.73;;;15.63;;
32946;SDS011;54465;51.230;22.504;2023-03-04T14:57:51;32.90;;;15.57;;
32946;SDS011;54465;51.230;22.504;2023-03-04T15:03:05;19.73;;;12.17;;
32946;SDS011;54465;51.230;22.504;2023-03-04T15:08:24;31.45;;;13.27;;
32946;SDS011;54465;51.230;22.504;2023-03-04T15:13:37;23.70;;;12.32;;
32946;SDS011;54465;51.230;22.504;2023-03-04T15:19:02;20.65;;;11.57;;
32946;SDS011;54465;51.230;22.504;2023-03-04T15:24:05;24.33;;;13.52;;
32946;SDS011;54465;51.230;22.504;2023-03-04T15:29:13;23.98;;;13.20;;
32946;SDS011;54465;51.230;22.504;2023-03-04T15:34:19;23.63;;;11.80;;
32946;SDS011;54465;51.230;22.504;2023-03-04T15:39:19;20.95;;;12.48;;
32946;SDS011;54465;51.230;22.504;2023-03-04T15:44:22;33.65;;;15.32;;
32946;SDS011;54465;51.230;22.504;2023-03-04T15:49:23;37.70;;;19.13;;
32946;SDS011;54465;51.230;22.504;2023-03-04T15:54:24;36.38;;;18.65;;
32946;SDS011;54465;51.230;22.504;2023-03-04T15:59:25;23.35;;;12.75;;
32946;SDS011;54465;51.230;22.504;2023-03-04T16:04:26;22.17;;;12.45;;
32946;SDS011;54465;51.230;22.504;2023-03-04T16:09:27;27.50;;;15.23;;
32946;SDS011;54465;51.230;22.504;2023-03-04T16:14:27;27.60;;;14.70;;
32946;SDS011;54465;51.230;22.504;2023-03-04T16:19:28;20.27;;;11.38;;
32946;SDS011;54465;51.230;22.504;2023-03-04T16:24:29;12.98;;;7.97;;
32946;SDS011;54465;51.230;22.504;2023-03-04T16:29:32;8.90;;;4.82;;
32946;SDS011;54465;51.230;22.504;2023-03-04T16:34:32;37.22;;;15.05;;
32946;SDS011;54465;51.230;22.504;2023-03-04T16:39:33;11.70;;;7.22;;
32946;SDS011;54465;51.230;22.504;2023-03-04T16:44:33;8.35;;;4.95;;
32946;SDS011;54465;51.230;22.504;2023-03-04T16:49:34;11.55;;;5.57;;
32946;SDS011;54465;51.230;22.504;2023-03-04T16:54:34;8.52;;;4.93;;
32946;SDS011;54465;51.230;22.504;2023-03-04T16:59:35;9.32;;;3.97;;
32946;SDS011;54465;51.230;22.504;2023-03-04T17:04:36;10.35;;;5.18;;
32946;SDS011;54465;51.230;22.504;2023-03-04T17:09:36;8.23;;;4.03;;
32946;SDS011;54465;51.230;22.504;2023-03-04T17:14:37;13.05;;;5.75;;
32946;SDS011;54465;51.230;22.504;2023-03-04T17:19:38;8.05;;;4.97;;
32946;SDS011;54465;51.230;22.504;2023-03-04T17:24:40;12.05;;;5.93;;
32946;SDS011;54465;51.230;22.504;2023-03-04T17:29:40;13.32;;;6.20;;
32946;SDS011;54465;51.230;22.504;2023-03-04T17:34:41;13.15;;;6.75;;
32946;SDS011;54465;51.230;22.504;2023-03-04T17:39:41;10.50;;;6.05;;
32946;SDS011;54465;51.230;22.504;2023-03-04T17:44:42;9.27;;;5.72;;
32946;SDS011;54465;51.230;22.504;2023-03-04T17:49:43;7.40;;;4.93;;
32946;SDS011;54465;51.230;22.504;2023-03-04T17:54:44;11.55;;;6.53;;
32946;SDS011;54465;51.230;22.504;2023-03-04T17:59:45;5.25;;;2.63;;
32946;SDS011;54465;51.230;22.504;2023-03-04T18:04:45;6.43;;;2.03;;
32946;SDS011;54465;51.230;22.504;2023-03-04T18:09:47;5.60;;;2.70;;
32946;SDS011;54465;51.230;22.504;2023-03-04T18:14:48;4.53;;;2.60;;
32946;SDS011;54465;51.230;22.504;2023-03-04T18:19:48;5.10;;;2.05;;
32946;SDS011;54465;51.230;22.504;2023-03-04T18:24:49;7.05;;;2.40;;
32946;SDS011;54465;51.230;22.504;2023-03-04T18:29:49;4.18;;;1.77;;
32946;SDS011;54465;51.230;22.504;2023-03-04T18:34:50;6.05;;;1.80;;
32946;SDS011;54465;51.230;22.504;2023-03-04T18:39:50;4.95;;;2.03;;
32946;SDS011;54465;51.230;22.504;2023-03-04T18:44:51;3.35;;;1.80;;
32946;SDS011;54465;51.230;22.504;2023-03-04T18:49:52;4.82;;;1.95;;
32946;SDS011;54465;51.230;22.504;2023-03-04T18:54:52;5.97;;;2.10;;
32946;SDS011;54465;51.230;22.504;2023-03-04T18:59:59;5.43;;;2.35;;
32946;SDS011;54465;51.230;22.504;2023-03-04T19:05:03;5.57;;;2.40;;
32946;SDS011;54465;51.230;22.504;2023-03-04T19:10:06;3.55;;;1.52;;
32946;SDS011;54465;51.230;22.504;2023-03-04T19:15:08;2.80;;;1.17;;
32946;SDS011;54465;51.230;22.504;2023-03-04T19:20:09;2.88;;;1.35;;
32946;SDS011;54465;51.230;22.504;2023-03-04T19:25:10;6.75;;;2.05;;
32946;SDS011;54465;51.230;22.504;2023-03-04T19:30:11;4.75;;;1.80;;
32946;SDS011;54465;51.230;22.504;2023-03-04T19:35:11;6.05;;;2.03;;
32946;SDS011;54465;51.230;22.504;2023-03-04T19:40:12;5.13;;;2.25;;
32946;SDS011;54465;51.230;22.504;2023-03-04T19:45:12;4.40;;;1.83;;
32946;SDS011;54465;51.230;22.504;2023-03-04T19:50:13;7.05;;;2.33;;
32946;SDS011;54465;51.230;22.504;2023-03-04T19:55:15;4.47;;;2.38;;
32946;SDS011;54465;51.230;22.504;2023-03-04T20:00:15;6.10;;;2.28;;
32946;SDS011;54465;51.230;22.504;2023-03-04T20:05:16;7.10;;;2.47;;
32946;SDS011;54465;51.230;22.504;2023-03-04T20:10:17;6.32;;;1.70;;
32946;SDS011;54465;51.230;22.504;2023-03-04T20:15:18;5.38;;;1.75;;
32946;SDS011;54465;51.230;22.504;2023-03-04T20:20:19;5.40;;;1.90;;
32946;SDS011;54465;51.230;22.504;2023-03-04T20:25:19;3.95;;;1.42;;
32946;SDS011;54465;51.230;22.504;2023-03-04T20:30:20;1.98;;;0.73;;
32946;SDS011;54465;51.230;22.504;2023-03-04T20:35:21;3.72;;;0.88;;
32946;SDS011;54465;51.230;22.504;2023-03-04T20:40:21;3.38;;;1.20;;
32946;SDS011;54465;51.230;22.504;2023-03-04T20:45:22;4.25;;;1.20;;
32946;SDS011;54465;51.230;22.504;2023-03-04T20:50:23;5.03;;;1.65;;
32946;SDS011;54465;51.230;22.504;2023-03-04T20:55:25;5.65;;;2.42;;
32946;SDS011;54465;51.230;22.504;2023-03-04T21:00:27;3.50;;;1.45;;
32946;SDS011;54465;51.230;22.504;2023-03-04T21:05:29;5.75;;;2.03;;
32946;SDS011;54465;51.230;22.504;2023-03-04T21:10:29;4.05;;;1.50;;
32946;SDS011;54465;51.230;22.504;2023-03-04T21:15:34;4.68;;;1.55;;
32946;SDS011;54465;51.230;22.504;2023-03-04T21:20:35;3.15;;;1.38;;
32946;SDS011;54465;51.230;22.504;2023-03-04T21:25:35;3.38;;;1.42;;
32946;SDS011;54465;51.230;22.504;2023-03-04T21:30:36;4.22;;;1.40;;
32946;SDS011;54465;51.230;22.504;2023-03-04T21:35:36;4.78;;;1.63;;
32946;SDS011;54465;51.230;22.504;2023-03-04T21:40:36;5.22;;;1.60;;
32946;SDS011;54465;51.230;22.504;2023-03-04T21:45:37;4.70;;;1.33;;
32946;SDS011;54465;51.230;22.504;2023-03-04T21:50:37;3.70;;;1.45;;
32946;SDS011;54465;51.230;22.504;2023-03-04T21:55:41;5.75;;;2.03;;
32946;SDS011;54465;51.230;22.504;2023-03-04T22:00:42;3.80;;;1.77;;
32946;SDS011;54465;51.230;22.504;2023-03-04T22:05:42;8.02;;;1.98;;
32946;SDS011;54465;51.230;22.504;2023-03-04T22:10:45;5.80;;;2.30;;
32946;SDS011;54465;51.230;22.504;2023-03-04T22:15:46;6.45;;;2.17;;
32946;SDS011;54465;51.230;22.504;2023-03-04T22:20:47;3.95;;;2.03;;
32946;SDS011;54465;51.230;22.504;2023-03-04T22:25:49;5.38;;;2.10;;
32946;SDS011;54465;51.230;22.504;2023-03-04T22:30:49;21.95;;;5.97;;
32946;SDS011;54465;51.230;22.504;2023-03-04T22:35:50;32.10;;;8.40;;
32946;SDS011;54465;51.230;22.504;2023-03-04T22:40:51;21.90;;;5.45;;
32946;SDS011;54465;51.230;22.504;2023-03-04T22:45:52;9.20;;;3.78;;
32946;SDS011;54465;51.230;22.504;2023-03-04T22:50:53;5.82;;;2.15;;
32946;SDS011;54465;51.230;22.504;2023-03-04T22:55:56;4.20;;;2.00;;
32946;SDS011;54465;51.230;22.504;2023-03-04T23:00:57;5.03;;;1.80;;
32946;SDS011;54465;51.230;22.504;2023-03-04T23:05:59;6.70;;;2.35;;
32946;SDS011;54465;51.230;22.504;2023-03-04T23:11:01;4.70;;;1.85;;
32946;SDS011;54465;51.230;22.504;2023-03-04T23:16:05;10.23;;;3.55;;
32946;SDS011;54465;51.230;22.504;2023-03-04T23:21:08;7.10;;;2.42;;
32946;SDS011;54465;51.230;22.504;2023-03-04T23:26:23;9.45;;;2.55;;
32946;SDS011;54465;51.230;22.504;2023-03-04T23:31:25;5.18;;;2.20;;
32946;SDS011;54465;51.230;22.504;2023-03-04T23:36:27;3.95;;;1.73;;
32946;SDS011;54465;51.230;22.504;2023-03-04T23:41:29;5.82;;;2.38;;
32946;SDS011;54465;51.230;22.504;2023-03-04T23:46:30;5.30;;;2.22;;
32946;SDS011;54465;51.230;22.504;2023-03-04T23:51:31;7.88;;;3.17;;
32946;SDS011;54465;51.230;22.504;2023-03-04T23:56:32;5.72;;;3.03;;
